Rocker, Montana
Current Conditions -  °F | °C
As of 1:53 AM on Thursday 18 Dec 2014 (Local Time) from KBTM Reporting Station
Clear Clear  
Wind Chill:   Ceiling: Unl
Heat Index:   Visibility: 7mi
Dew Point:   Wind: 0mph
Humidity: 84%   Direction: NA
Pressure: 29.96"   Gusts: NA
Location:  45.9274°N, 112.504°W
Report Text: KBTM 180853Z AUTO 00000KT 7SM CLR M14/M16 A2996 RMK AO2 SLP199 I1000 I3000 T11391161 58001
Loading
Personal Weather Stations






























Interactive Weather Map New forecast layout! Learn more

10-Day Weather Forecast

Advertisements
Track Severe Weather on mobile